sensor_id;sensor_type;location;lat;lon;timestamp;pressure;altitude;pressure_sealevel;temperature;humidity
17772;BME280;9010;32.624;-96.938;2022-09-12T00:01:08;99429.59;;;26.91;95.21
17772;BME280;9010;32.624;-96.938;2022-09-12T00:03:37;99425.41;;;26.89;96.50
17772;BME280;9010;32.624;-96.938;2022-09-12T00:06:12;99424.91;;;26.85;96.54
17772;BME280;9010;32.624;-96.938;2022-09-12T00:08:42;99425.13;;;26.83;95.60
17772;BME280;9010;32.624;-96.938;2022-09-12T00:11:12;99434.41;;;26.81;94.13
17772;BME280;9010;32.624;-96.938;2022-09-12T00:13:41;99432.72;;;26.80;94.18
17772;BME280;9010;32.624;-96.938;2022-09-12T00:16:20;99435.56;;;26.87;92.42
17772;BME280;9010;32.624;-96.938;2022-09-12T00:18:49;99431.72;;;26.81;93.18
17772;BME280;9010;32.624;-96.938;2022-09-12T00:21:19;99433.41;;;26.74;94.60
17772;BME280;9010;32.624;-96.938;2022-09-12T00:23:48;99430.75;;;26.66;95.81
17772;BME280;9010;32.624;-96.938;2022-09-12T00:26:19;99433.16;;;26.61;96.94
17772;BME280;9010;32.624;-96.938;2022-09-12T00:28:47;99425.59;;;26.56;98.30
17772;BME280;9010;32.624;-96.938;2022-09-12T00:31:18;99422.94;;;26.48;99.77
17772;BME280;9010;32.624;-96.938;2022-09-12T00:33:47;99420.78;;;26.44;100.00
17772;BME280;9010;32.624;-96.938;2022-09-12T00:36:17;99427.53;;;26.40;100.00
17772;BME280;9010;32.624;-96.938;2022-09-12T00:38:46;99422.72;;;26.27;100.00
17772;BME280;9010;32.624;-96.938;2022-09-12T00:41:19;99426.13;;;26.21;100.00
17772;BME280;9010;32.624;-96.938;2022-09-12T00:43:48;99421.25;;;26.08;100.00
17772;BME280;9010;32.624;-96.938;2022-09-12T00:46:29;99418.91;;;25.97;100.00
17772;BME280;9010;32.624;-96.938;2022-09-12T00:49:02;99424.84;;;25.93;100.00
17772;BME280;9010;32.624;-96.938;2022-09-12T00:51:33;99416.09;;;25.91;100.00
17772;BME280;9010;32.624;-96.938;2022-09-12T00:54:07;99407.19;;;25.90;100.00
17772;BME280;9010;32.624;-96.938;2022-09-12T00:56:40;99414.78;;;25.79;100.00
17772;BME280;9010;32.624;-96.938;2022-09-12T00:59:13;99415.47;;;25.73;100.00
17772;BME280;9010;32.624;-96.938;2022-09-12T01:01:44;99413.66;;;25.65;100.00
17772;BME280;9010;32.624;-96.938;2022-09-12T01:04:16;99411.44;;;25.60;100.00
17772;BME280;9010;32.624;-96.938;2022-09-12T01:06:45;99414.00;;;25.54;100.00
17772;BME280;9010;32.624;-96.938;2022-09-12T01:09:16;99414.34;;;25.51;100.00
17772;BME280;9010;32.624;-96.938;2022-09-12T01:11:49;99415.34;;;25.50;100.00
17772;BME280;9010;32.624;-96.938;2022-09-12T01:14:18;99421.72;;;25.41;100.00
17772;BME280;9010;32.624;-96.938;2022-09-12T01:16:47;99419.38;;;25.38;100.00
17772;BME280;9010;32.624;-96.938;2022-09-12T01:19:31;99424.28;;;25.34;100.00
17772;BME280;9010;32.624;-96.938;2022-09-12T01:22:15;99424.75;;;25.30;100.00
17772;BME280;9010;32.624;-96.938;2022-09-12T01:24:53;99427.44;;;25.30;100.00
17772;BME280;9010;32.624;-96.938;2022-09-12T01:27:39;99422.25;;;25.28;100.00
17772;BME280;9010;32.624;-96.938;2022-09-12T01:30:37;99428.47;;;25.29;100.00
17772;BME280;9010;32.624;-96.938;2022-09-12T01:36:26;99445.31;;;25.23;100.00
17772;BME280;9010;32.624;-96.938;2022-09-12T01:38:59;99446.47;;;25.20;100.00
17772;BME280;9010;32.624;-96.938;2022-09-12T01:41:33;99446.63;;;25.19;100.00
17772;BME280;9010;32.624;-96.938;2022-09-12T01:44:11;99445.97;;;25.17;100.00
17772;BME280;9010;32.624;-96.938;2022-09-12T01:46:46;99442.94;;;25.11;100.00
17772;BME280;9010;32.624;-96.938;2022-09-12T01:49:20;99449.34;;;25.10;100.00
17772;BME280;9010;32.624;-96.938;2022-09-12T01:51:55;99448.66;;;25.08;100.00
17772;BME280;9010;32.624;-96.938;2022-09-12T01:54:29;99451.50;;;25.07;100.00
17772;BME280;9010;32.624;-96.938;2022-09-12T01:57:02;99459.25;;;25.02;100.00
17772;BME280;9010;32.624;-96.938;2022-09-12T01:59:33;99460.44;;;25.07;100.00
17772;BME280;9010;32.624;-96.938;2022-09-12T02:02:07;99462.59;;;25.04;100.00
17772;BME280;9010;32.624;-96.938;2022-09-12T02:04:41;99465.81;;;24.99;100.00
17772;BME280;9010;32.624;-96.938;2022-09-12T02:07:17;99464.44;;;24.95;100.00
17772;BME280;9010;32.624;-96.938;2022-09-12T02:09:49;99464.44;;;24.95;100.00
17772;BME280;9010;32.624;-96.938;2022-09-12T02:12:25;99466.78;;;24.90;100.00
17772;BME280;9010;32.624;-96.938;2022-09-12T02:15:00;99472.19;;;24.90;100.00
17772;BME280;9010;32.624;-96.938;2022-09-12T02:17:34;99473.34;;;24.88;100.00
17772;BME280;9010;32.624;-96.938;2022-09-12T02:20:07;99480.53;;;24.79;100.00
17772;BME280;9010;32.624;-96.938;2022-09-12T02:22:37;99485.72;;;24.73;100.00
17772;BME280;9010;32.624;-96.938;2022-09-12T02:25:08;99478.47;;;24.65;100.00
17772;BME280;9010;32.624;-96.938;2022-09-12T02:27:42;99479.66;;;24.63;100.00
17772;BME280;9010;32.624;-96.938;2022-09-12T02:30:12;99493.41;;;24.59;100.00
17772;BME280;9010;32.624;-96.938;2022-09-12T02:32:52;99486.66;;;24.55;100.00
17772;BME280;9010;32.624;-96.938;2022-09-12T02:35:31;99487.38;;;24.57;100.00
17772;BME280;9010;32.624;-96.938;2022-09-12T02:38:04;99498.13;;;24.57;100.00
17772;BME280;9010;32.624;-96.938;2022-09-12T02:40:34;99498.91;;;24.50;100.00
17772;BME280;9010;32.624;-96.938;2022-09-12T02:43:04;99504.63;;;24.47;100.00
17772;BME280;9010;32.624;-96.938;2022-09-12T02:45:33;99502.22;;;24.36;100.00
17772;BME280;9010;32.624;-96.938;2022-09-12T02:48:06;99504.91;;;24.36;100.00
17772;BME280;9010;32.624;-96.938;2022-09-12T02:50:36;99509.25;;;24.29;100.00
17772;BME280;9010;32.624;-96.938;2022-09-12T02:53:06;99514.75;;;24.19;100.00
17772;BME280;9010;32.624;-96.938;2022-09-12T02:55:36;99510.84;;;24.14;100.00
17772;BME280;9010;32.624;-96.938;2022-09-12T02:58:07;99518.00;;;24.05;100.00
17772;BME280;9010;32.624;-96.938;2022-09-12T03:00:43;99515.47;;;24.03;100.00
17772;BME280;9010;32.624;-96.938;2022-09-12T03:03:35;99511.09;;;24.02;100.00
17772;BME280;9010;32.624;-96.938;2022-09-12T03:06:12;99513.25;;;23.99;100.00
17772;BME280;9010;32.624;-96.938;2022-09-12T03:08:59;99515.16;;;24.07;100.00
17772;BME280;9010;32.624;-96.938;2022-09-12T03:11:51;99509.03;;;23.96;100.00
17772;BME280;9010;32.624;-96.938;2022-09-12T03:14:35;99506.66;;;23.93;100.00
17772;BME280;9010;32.624;-96.938;2022-09-12T03:17:16;99503.63;;;23.88;100.00
17772;BME280;9010;32.624;-96.938;2022-09-12T03:19:57;99508.09;;;23.80;100.00
17772;BME280;9010;32.624;-96.938;2022-09-12T03:22:30;99506.94;;;23.82;100.00
17772;BME280;9010;32.624;-96.938;2022-09-12T03:25:07;99513.41;;;23.72;100.00
17772;BME280;9010;32.624;-96.938;2022-09-12T03:27:42;99515.34;;;23.62;100.00
17772;BME280;9010;32.624;-96.938;2022-09-12T03:30:12;99512.47;;;23.55;100.00
17772;BME280;9010;32.624;-96.938;2022-09-12T03:32:45;99510.41;;;23.49;100.00
17772;BME280;9010;32.624;-96.938;2022-09-12T03:35:16;99514.91;;;23.49;100.00
17772;BME280;9010;32.624;-96.938;2022-09-12T03:37:46;99521.97;;;23.50;100.00
17772;BME280;9010;32.624;-96.938;2022-09-12T03:40:14;99517.91;;;23.45;100.00
17772;BME280;9010;32.624;-96.938;2022-09-12T03:42:42;99522.31;;;23.37;100.00
17772;BME280;9010;32.624;-96.938;2022-09-12T03:45:11;99514.88;;;23.31;100.00
17772;BME280;9010;32.624;-96.938;2022-09-12T03:47:39;99517.88;;;23.28;100.00
17772;BME280;9010;32.624;-96.938;2022-09-12T03:50:08;99513.13;;;23.22;100.00
17772;BME280;9010;32.624;-96.938;2022-09-12T03:52:38;99513.44;;;23.19;100.00
17772;BME280;9010;32.624;-96.938;2022-09-12T03:55:06;99510.38;;;23.14;100.00
17772;BME280;9010;32.624;-96.938;2022-09-12T03:57:35;99512.38;;;23.12;100.00
17772;BME280;9010;32.624;-96.938;2022-09-12T04:00:04;99520.56;;;23.10;100.00
17772;BME280;9010;32.624;-96.938;2022-09-12T04:02:32;99513.34;;;23.11;100.00
17772;BME280;9010;32.624;-96.938;2022-09-12T04:05:01;99510.28;;;23.06;100.00
17772;BME280;9010;32.624;-96.938;2022-09-12T04:07:29;99518.41;;;22.96;100.00
17772;BME280;9010;32.624;-96.938;2022-09-12T04:09:59;99518.94;;;23.00;100.00
17772;BME280;9010;32.624;-96.938;2022-09-12T04:12:28;99512.97;;;23.06;100.00
17772;BME280;9010;32.624;-96.938;2022-09-12T04:14:56;99518.66;;;23.03;100.00
17772;BME280;9010;32.624;-96.938;2022-09-12T04:17:25;99525.16;;;23.00;100.00
17772;BME280;9010;32.624;-96.938;2022-09-12T04:19:53;99523.63;;;22.98;100.00
17772;BME280;9010;32.624;-96.938;2022-09-12T04:22:21;99518.41;;;22.96;100.00
17772;BME280;9010;32.624;-96.938;2022-09-12T04:24:50;99513.25;;;22.85;100.00
17772;BME280;9010;32.624;-96.938;2022-09-12T04:27:20;99518.22;;;22.80;100.00
17772;BME280;9010;32.624;-96.938;2022-09-12T04:29:48;99524.75;;;22.77;100.00
17772;BME280;9010;32.624;-96.938;2022-09-12T04:32:16;99519.69;;;22.74;100.00
17772;BME280;9010;32.624;-96.938;2022-09-12T04:34:45;99511.09;;;22.71;100.00
17772;BME280;9010;32.624;-96.938;2022-09-12T04:37:13;99516.75;;;22.68;100.00
17772;BME280;9010;32.624;-96.938;2022-09-12T04:39:42;99518.63;;;22.67;100.00
17772;BME280;9010;32.624;-96.938;2022-09-12T04:42:10;99524.28;;;22.64;100.00
17772;BME280;9010;32.624;-96.938;2022-09-12T04:44:40;99533.56;;;22.60;100.00
17772;BME280;9010;32.624;-96.938;2022-09-12T04:47:08;99531.84;;;22.59;100.00
17772;BME280;9010;32.624;-96.938;2022-09-12T04:49:36;99529.91;;;22.61;100.00
17772;BME280;9010;32.624;-96.938;2022-09-12T04:52:04;99532.03;;;22.58;100.00
17772;BME280;9010;32.624;-96.938;2022-09-12T04:54:33;99533.59;;;22.51;100.00
17772;BME280;9010;32.624;-96.938;2022-09-12T04:57:01;99535.28;;;22.52;100.00
17772;BME280;9010;32.624;-96.938;2022-09-12T04:59:29;99532.06;;;22.48;100.00
17772;BME280;9010;32.624;-96.938;2022-09-12T05:01:59;99537.03;;;22.43;100.00
17772;BME280;9010;32.624;-96.938;2022-09-12T05:04:27;99530.28;;;22.39;100.00
17772;BME280;9010;32.624;-96.938;2022-09-12T05:06:56;99536.75;;;22.37;100.00
17772;BME280;9010;32.624;-96.938;2022-09-12T05:09:25;99537.06;;;22.33;100.00
17772;BME280;9010;32.624;-96.938;2022-09-12T05:11:54;99540.47;;;22.26;100.00
17772;BME280;9010;32.624;-96.938;2022-09-12T05:14:22;99547.44;;;22.19;100.00
17772;BME280;9010;32.624;-96.938;2022-09-12T05:16:50;99537.69;;;22.18;100.00
17772;BME280;9010;32.624;-96.938;2022-09-12T05:19:20;99538.69;;;22.17;100.00
17772;BME280;9010;32.624;-96.938;2022-09-12T05:21:48;99536.28;;;22.14;100.00
17772;BME280;9010;32.624;-96.938;2022-09-12T05:24:17;99538.56;;;22.09;100.00
17772;BME280;9010;32.624;-96.938;2022-09-12T05:26:45;99536.13;;;22.25;100.00
17772;BME280;9010;32.624;-96.938;2022-09-12T05:29:13;99534.34;;;22.16;100.00
17772;BME280;9010;32.624;-96.938;2022-09-12T05:31:41;99537.41;;;22.21;100.00
17772;BME280;9010;32.624;-96.938;2022-09-12T05:34:09;99524.19;;;22.10;100.00
17772;BME280;9010;32.624;-96.938;2022-09-12T05:36:39;99529.56;;;22.10;100.00
17772;BME280;9010;32.624;-96.938;2022-09-12T05:39:07;99536.91;;;21.98;100.00
17772;BME280;9010;32.624;-96.938;2022-09-12T05:41:36;99528.16;;;22.06;100.00
17772;BME280;9010;32.624;-96.938;2022-09-12T05:44:06;99541.66;;;22.14;100.00
17772;BME280;9010;32.624;-96.938;2022-09-12T05:46:36;99541.53;;;22.15;100.00
17772;BME280;9010;32.624;-96.938;2022-09-12T05:49:06;99536.47;;;22.03;100.00
17772;BME280;9010;32.624;-96.938;2022-09-12T05:51:36;99536.91;;;21.98;100.00
17772;BME280;9010;32.624;-96.938;2022-09-12T05:54:07;99533.97;;;21.92;100.00
17772;BME280;9010;32.624;-96.938;2022-09-12T05:56:37;99532.44;;;21.89;100.00
17772;BME280;9010;32.624;-96.938;2022-09-12T05:59:09;99542.53;;;21.86;100.00
17772;BME280;9010;32.624;-96.938;2022-09-12T06:01:38;99525.78;;;21.84;100.00
17772;BME280;9010;32.624;-96.938;2022-09-12T06:04:07;99523.84;;;21.76;100.00
17772;BME280;9010;32.624;-96.938;2022-09-12T06:06:36;99518.22;;;21.69;100.00
17772;BME280;9010;32.624;-96.938;2022-09-12T06:09:08;99519.47;;;21.65;100.00
17772;BME280;9010;32.624;-96.938;2022-09-12T06:11:38;99525.13;;;21.62;100.00
17772;BME280;9010;32.624;-96.938;2022-09-12T06:14:08;99521.75;;;21.60;100.00
17772;BME280;9010;32.624;-96.938;2022-09-12T06:16:37;99523.72;;;21.68;100.00
17772;BME280;9010;32.624;-96.938;2022-09-12T06:19:10;99521.16;;;21.66;100.00
17772;BME280;9010;32.624;-96.938;2022-09-12T06:21:39;99521.16;;;21.66;100.00
17772;BME280;9010;32.624;-96.938;2022-09-12T06:24:09;99513.13;;;21.66;100.00
17772;BME280;9010;32.624;-96.938;2022-09-12T06:26:38;99515.53;;;21.60;100.00
17772;BME280;9010;32.624;-96.938;2022-09-12T06:29:06;99510.34;;;21.58;100.00
17772;BME280;9010;32.624;-96.938;2022-09-12T06:31:35;99515.69;;;21.68;100.00
17772;BME280;9010;32.624;-96.938;2022-09-12T06:34:05;99519.47;;;21.65;100.00
17772;BME280;9010;32.624;-96.938;2022-09-12T06:36:36;99514.00;;;21.57;100.00
17772;BME280;9010;32.624;-96.938;2022-09-12T06:39:06;99517.22;;;21.51;100.00
17772;BME280;9010;32.624;-96.938;2022-09-12T06:41:37;99518.38;;;21.49;100.00
17772;BME280;9010;32.624;-96.938;2022-09-12T06:44:05;99517.56;;;21.48;100.00
17772;BME280;9010;32.624;-96.938;2022-09-12T06:46:33;99518.41;;;21.39;100.00
17772;BME280;9010;32.624;-96.938;2022-09-12T06:49:02;99520.06;;;21.40;100.00
17772;BME280;9010;32.624;-96.938;2022-09-12T06:51:30;99502.63;;;21.36;100.00
17772;BME280;9010;32.624;-96.938;2022-09-12T06:53:58;99504.88;;;21.31;100.00
17772;BME280;9010;32.624;-96.938;2022-09-12T06:56:27;99510.53;;;21.28;100.00
17772;BME280;9010;32.624;-96.938;2022-09-12T06:58:57;99503.75;;;21.24;100.00
17772;BME280;9010;32.624;-96.938;2022-09-12T07:01:27;99505.16;;;21.28;100.00
17772;BME280;9010;32.624;-96.938;2022-09-12T07:03:56;99497.41;;;21.35;100.00
17772;BME280;9010;32.624;-96.938;2022-09-12T07:06:26;99498.81;;;21.39;100.00
17772;BME280;9010;32.624;-96.938;2022-09-12T07:08:57;99494.19;;;21.31;100.00
17772;BME280;9010;32.624;-96.938;2022-09-12T07:11:28;99491.94;;;21.36;100.00
17772;BME280;9010;32.624;-96.938;2022-09-12T07:13:59;99487.41;;;21.46;100.00
17772;BME280;9010;32.624;-96.938;2022-09-12T07:16:28;99494.44;;;21.47;100.00
17772;BME280;9010;32.624;-96.938;2022-09-12T07:18:57;99483.97;;;21.63;100.00
17772;BME280;9010;32.624;-96.938;2022-09-12T07:21:26;99489.38;;;21.54;100.00
17772;BME280;9010;32.624;-96.938;2022-09-12T07:23:55;99488.53;;;21.53;100.00
17772;BME280;9010;32.624;-96.938;2022-09-12T07:26:24;99489.78;;;21.49;100.00
17772;BME280;9010;32.624;-96.938;2022-09-12T07:28:53;99491.94;;;21.36;100.00
17772;BME280;9010;32.624;-96.938;2022-09-12T07:31:26;99488.41;;;21.26;100.00
17772;BME280;9010;32.624;-96.938;2022-09-12T07:33:55;99487.97;;;21.21;100.00
17772;BME280;9010;32.624;-96.938;2022-09-12T07:36:24;99484.75;;;21.17;100.00
17772;BME280;9010;32.624;-96.938;2022-09-12T07:38:56;99485.16;;;21.13;100.00
17772;BME280;9010;32.624;-96.938;2022-09-12T07:41:25;99483.47;;;21.12;100.00
17772;BME280;9010;32.624;-96.938;2022-09-12T07:43:55;99489.34;;;21.06;100.00
17772;BME280;9010;32.624;-96.938;2022-09-12T07:46:26;99485.97;;;21.04;100.00
17772;BME280;9010;32.624;-96.938;2022-09-12T07:48:56;99485.69;;;20.97;100.00
17772;BME280;9010;32.624;-96.938;2022-09-12T07:51:26;99485.16;;;20.94;100.00
17772;BME280;9010;32.624;-96.938;2022-09-12T07:53:55;99487.41;;;20.89;100.00
17772;BME280;9010;32.624;-96.938;2022-09-12T07:56:24;99486.53;;;20.88;100.00
17772;BME280;9010;32.624;-96.938;2022-09-12T07:58:53;99487.78;;;20.84;100.00
17772;BME280;9010;32.624;-96.938;2022-09-12T08:01:22;99480.91;;;20.82;100.00
17772;BME280;9010;32.624;-96.938;2022-09-12T08:03:56;99475.84;;;20.79;100.00
17772;BME280;9010;32.624;-96.938;2022-09-12T08:06:26;99479.75;;;20.75;100.00
17772;BME280;9010;32.624;-96.938;2022-09-12T08:08:56;99484.81;;;20.78;100.00
17772;BME280;9010;32.624;-96.938;2022-09-12T08:11:25;99482.31;;;20.76;100.00
17772;BME280;9010;32.624;-96.938;2022-09-12T08:13:55;99486.94;;;20.74;100.00
17772;BME280;9010;32.624;-96.938;2022-09-12T08:16:25;99480.06;;;20.72;100.00
17772;BME280;9010;32.624;-96.938;2022-09-12T08:18:55;99476.38;;;20.73;100.00
17772;BME280;9010;32.624;-96.938;2022-09-12T08:21:24;99472.88;;;20.62;100.00
17772;BME280;9010;32.624;-96.938;2022-09-12T08:23:54;99471.44;;;20.58;100.00
17772;BME280;9010;32.624;-96.938;2022-09-12T08:26:23;99467.75;;;20.50;100.00
17772;BME280;9010;32.624;-96.938;2022-09-12T08:28:51;99463.13;;;20.42;100.00
17772;BME280;9010;32.624;-96.938;2022-09-12T08:31:21;99469.69;;;20.38;100.00
17772;BME280;9010;32.624;-96.938;2022-09-12T08:33:51;99468.41;;;20.33;100.00
17772;BME280;9010;32.624;-96.938;2022-09-12T08:36:22;99472.91;;;20.32;100.00
17772;BME280;9010;32.624;-96.938;2022-09-12T08:38:53;99469.53;;;20.30;100.00
17772;BME280;9010;32.624;-96.938;2022-09-12T08:41:26;99458.00;;;20.30;100.00
17772;BME280;9010;32.624;-96.938;2022-09-12T08:46:59;99467.47;;;20.13;100.00
17772;BME280;9010;32.624;-96.938;2022-09-12T08:49:33;99471.16;;;20.12;100.00
17772;BME280;9010;32.624;-96.938;2022-09-12T08:52:09;99472.97;;;20.12;100.00
17772;BME280;9010;32.624;-96.938;2022-09-12T08:54:38;99467.16;;;20.06;100.00
17772;BME280;9010;32.624;-96.938;2022-09-12T08:57:08;99461.81;;;20.06;100.00
17772;BME280;9010;32.624;-96.938;2022-09-12T08:59:40;99471.69;;;20.06;100.00
17772;BME280;9010;32.624;-96.938;2022-09-12T09:05:12;99468.13;;;19.96;100.00
17772;BME280;9010;32.624;-96.938;2022-09-12T09:08:20;99460.91;;;19.87;100.00
17772;BME280;9010;32.624;-96.938;2022-09-12T09:10:57;99467.88;;;19.78;100.00
17772;BME280;9010;32.624;-96.938;2022-09-12T09:13:37;99462.53;;;19.78;100.00
17772;BME280;9010;32.624;-96.938;2022-09-12T09:16:30;99460.28;;;19.74;100.00
17772;BME280;9010;32.624;-96.938;2022-09-12T09:19:03;99459.69;;;19.70;100.00
17772;BME280;9010;32.624;-96.938;2022-09-12T09:21:36;99454.19;;;19.62;100.00
17772;BME280;9010;32.624;-96.938;2022-09-12T09:24:13;99460.47;;;19.61;100.00
17772;BME280;9010;32.624;-96.938;2022-09-12T09:26:47;99458.94;;;19.59;100.00
17772;BME280;9010;32.624;-96.938;2022-09-12T09:29:19;99457.25;;;19.58;100.00
17772;BME280;9010;32.624;-96.938;2022-09-12T09:31:52;99459.19;;;19.56;100.00
17772;BME280;9010;32.624;-96.938;2022-09-12T09:34:23;99463.81;;;19.54;100.00
17772;BME280;9010;32.624;-96.938;2022-09-12T09:36:54;99466.47;;;19.54;100.00
17772;BME280;9010;32.624;-96.938;2022-09-12T09:39:37;99465.78;;;19.52;100.00
17772;BME280;9010;32.624;-96.938;2022-09-12T09:42:17;99464.34;;;19.47;100.00
17772;BME280;9010;32.624;-96.938;2022-09-12T09:44:47;99461.13;;;19.44;100.00
17772;BME280;9010;32.624;-96.938;2022-09-12T09:47:17;99466.31;;;19.45;100.00
17772;BME280;9010;32.624;-96.938;2022-09-12T09:49:46;99464.59;;;19.44;100.00
17772;BME280;9010;32.624;-96.938;2022-09-12T09:52:15;99476.16;;;19.34;100.00
17772;BME280;9010;32.624;-96.938;2022-09-12T09:54:48;99469.00;;;19.34;100.00
17772;BME280;9010;32.624;-96.938;2022-09-12T09:57:45;99455.78;;;19.33;100.00
17772;BME280;9010;32.624;-96.938;2022-09-12T10:00:28;99464.19;;;19.28;100.00
17772;BME280;9010;32.624;-96.938;2022-09-12T10:03:22;99457.50;;;19.34;100.00
17772;BME280;9010;32.624;-96.938;2022-09-12T10:05:53;99453.00;;;19.34;100.00
17772;BME280;9010;32.624;-96.938;2022-09-12T10:08:23;99461.47;;;19.39;100.00
17772;BME280;9010;32.624;-96.938;2022-09-12T10:10:56;99466.06;;;19.37;100.00
17772;BME280;9010;32.624;-96.938;2022-09-12T10:13:31;99464.78;;;19.32;100.00
17772;BME280;9010;32.624;-96.938;2022-09-12T10:16:03;99469.53;;;19.28;100.00
17772;BME280;9010;32.624;-96.938;2022-09-12T10:18:39;99467.81;;;19.27;100.00
17772;BME280;9010;32.624;-96.938;2022-09-12T10:21:21;99475.63;;;19.19;100.00
17772;BME280;9010;32.624;-96.938;2022-09-12T10:24:00;99473.09;;;19.18;100.00
17772;BME280;9010;32.624;-96.938;2022-09-12T10:26:37;99463.78;;;19.12;100.00
17772;BME280;9010;32.624;-96.938;2022-09-12T10:29:13;99470.47;;;19.07;100.00
17772;BME280;9010;32.624;-96.938;2022-09-12T10:31:48;99472.41;;;19.05;100.00
17772;BME280;9010;32.624;-96.938;2022-09-12T10:34:25;99471.25;;;18.98;100.00
17772;BME280;9010;32.624;-96.938;2022-09-12T10:37:01;99476.56;;;18.98;100.00
17772;BME280;9010;32.624;-96.938;2022-09-12T10:39:30;99476.84;;;18.94;100.00
17772;BME280;9010;32.624;-96.938;2022-09-12T10:42:01;99475.97;;;18.94;100.00
17772;BME280;9010;32.624;-96.938;2022-09-12T10:44:32;99472.72;;;18.90;100.00
17772;BME280;9010;32.624;-96.938;2022-09-12T10:47:20;99469.22;;;18.90;100.00
17772;BME280;9010;32.624;-96.938;2022-09-12T10:49:49;99463.91;;;18.90;100.00
17772;BME280;9010;32.624;-96.938;2022-09-12T10:52:21;99467.28;;;18.92;100.00
17772;BME280;9010;32.624;-96.938;2022-09-12T10:54:50;99461.34;;;18.88;100.00
17772;BME280;9010;32.624;-96.938;2022-09-12T10:57:38;99469.22;;;18.90;100.00
17772;BME280;9010;32.624;-96.938;2022-09-12T11:00:14;99468.38;;;18.89;100.00
17772;BME280;9010;32.624;-96.938;2022-09-12T11:02:53;99462.19;;;18.89;100.00
17772;BME280;9010;32.624;-96.938;2022-09-12T11:05:36;99463.16;;;18.88;100.00
17772;BME280;9010;32.624;-96.938;2022-09-12T11:08:16;99463.28;;;18.86;100.00
17772;BME280;9010;32.624;-96.938;2022-09-12T11:10:56;99438.63;;;18.73;100.00
17772;BME280;9010;32.624;-96.938;2022-09-12T11:13:45;99465.50;;;18.81;100.00
17772;BME280;9010;32.624;-96.938;2022-09-12T11:16:21;99463.66;;;18.82;100.00
17772;BME280;9010;32.624;-96.938;2022-09-12T11:19:15;99465.56;;;18.91;100.00
17772;BME280;9010;32.624;-96.938;2022-09-12T11:22:04;99471.03;;;18.89;100.00
17772;BME280;9010;32.624;-96.938;2022-09-12T11:25:03;99471.25;;;18.98;100.00
17772;BME280;9010;32.624;-96.938;2022-09-12T11:28:03;99483.94;;;19.05;100.00
17772;BME280;9010;32.624;-96.938;2022-09-12T11:30:47;99484.78;;;19.06;100.00
17772;BME280;9010;32.624;-96.938;2022-09-12T11:33:28;99487.59;;;19.04;100.00
17772;BME280;9010;32.624;-96.938;2022-09-12T11:36:05;99486.59;;;19.05;100.00
17772;BME280;9010;32.624;-96.938;2022-09-12T11:38:49;99497.97;;;19.07;100.00
17772;BME280;9010;32.624;-96.938;2022-09-12T11:41:23;99493.47;;;19.08;100.00
17772;BME280;9010;32.624;-96.938;2022-09-12T11:43:56;99494.34;;;19.08;100.00
17772;BME280;9010;32.624;-96.938;2022-09-12T11:46:32;99501.38;;;19.09;100.00
17772;BME280;9010;32.624;-96.938;2022-09-12T11:49:09;99492.25;;;19.12;100.00
17772;BME280;9010;32.624;-96.938;2022-09-12T11:51:43;99498.31;;;19.14;100.00
17772;BME280;9010;32.624;-96.938;2022-09-12T11:54:21;99494.34;;;19.08;100.00
17772;BME280;9010;32.624;-96.938;2022-09-12T11:56:56;99495.91;;;19.11;100.00
17772;BME280;9010;32.624;-96.938;2022-09-12T11:59:34;99496.75;;;19.11;100.00
17772;BME280;9010;32.624;-96.938;2022-09-12T12:02:11;99499.06;;;19.05;100.00
17772;BME280;9010;32.624;-96.938;2022-09-12T12:04:54;99504.06;;;18.98;100.00
17772;BME280;9010;32.624;-96.938;2022-09-12T12:07:22;99500.66;;;18.96;100.00
17772;BME280;9010;32.624;-96.938;2022-09-12T12:09:51;99506.00;;;18.96;100.00
17772;BME280;9010;32.624;-96.938;2022-09-12T12:12:22;99507.25;;;18.92;100.00
17772;BME280;9010;32.624;-96.938;2022-09-12T12:14:53;99499.25;;;18.92;100.00
17772;BME280;9010;32.624;-96.938;2022-09-12T12:17:24;99508.22;;;18.91;100.00
17772;BME280;9010;32.624;-96.938;2022-09-12T12:19:59;99500.47;;;18.88;100.00
17772;BME280;9010;32.624;-96.938;2022-09-12T12:22:28;99500.47;;;18.88;100.00
17772;BME280;9010;32.624;-96.938;2022-09-12T12:25:04;99501.47;;;18.87;100.00
17772;BME280;9010;32.624;-96.938;2022-09-12T12:27:48;99503.88;;;18.90;100.00
17772;BME280;9010;32.624;-96.938;2022-09-12T12:34:03;99515.94;;;18.94;100.00
17772;BME280;9010;32.624;-96.938;2022-09-12T12:36:46;99518.13;;;19.00;100.00
17772;BME280;9010;32.624;-96.938;2022-09-12T12:51:40;99514.13;;;19.26;100.00
17772;BME280;9010;32.624;-96.938;2022-09-12T12:54:47;99521.88;;;19.29;100.00
17772;BME280;9010;32.624;-96.938;2022-09-12T12:57:25;99523.78;;;19.38;100.00
17772;BME280;9010;32.624;-96.938;2022-09-12T12:59:57;99535.91;;;19.42;100.00
17772;BME280;9010;32.624;-96.938;2022-09-12T13:02:29;99525.06;;;19.55;100.00
17772;BME280;9010;32.624;-96.938;2022-09-12T13:05:01;99530.50;;;19.54;100.00
17772;BME280;9010;32.624;-96.938;2022-09-12T13:07:34;99532.66;;;19.60;100.00
17772;BME280;9010;32.624;-96.938;2022-09-12T13:10:06;99530.19;;;19.68;100.00
17772;BME280;9010;32.624;-96.938;2022-09-12T13:12:42;99534.84;;;19.75;100.00
17772;BME280;9010;32.624;-96.938;2022-09-12T13:15:45;99534.47;;;19.80;100.00
17772;BME280;9010;32.624;-96.938;2022-09-12T13:18:17;99533.22;;;19.84;100.00
17772;BME280;9010;32.624;-96.938;2022-09-12T13:20:50;99535.97;;;19.93;100.00
17772;BME280;9010;32.624;-96.938;2022-09-12T13:23:26;99537.50;;;19.96;100.00
17772;BME280;9010;32.624;-96.938;2022-09-12T13:25:55;99534.91;;;20.05;100.00
17772;BME280;9010;32.624;-96.938;2022-09-12T13:28:24;99537.16;;;20.10;100.00
17772;BME280;9010;32.624;-96.938;2022-09-12T13:31:00;99533.53;;;20.11;100.00
17772;BME280;9010;32.624;-96.938;2022-09-12T13:33:35;99538.59;;;20.14;100.00
17772;BME280;9010;32.624;-96.938;2022-09-12T13:39:12;99537.75;;;20.34;100.00